Terminal Aerodrome Forecast
Issued by NWS

Home | Current Version | Previous Version | Text Only | Print | Product List | Glossary On
Versions: 1 2 3 4 5 6 7 8 9 10 11 12 13 14 15 16 17
097
FTPA31 PHFO 172324
TAFHNY
TAF
PHNY 172324Z 1800/1824 04028G38KT P6SM FEW020 SCT040
     FM180700 05020G28KT P6SM FEW020 SCT040
     FM182200 05016G32KT P6SM FEW020 SCT040=

USA.gov is the U.S. government's official web portal to all federal, state and local government web resources and services.